Time;durP1;ratioP1;P1;durP2;ratioP2;P2;SDS_P1;SDS_P2;PMS_P1;PMS_P2;Temp;Humidity;BMP_temperature;BMP_pressure;BME280_temperature;BME280_humidity;BME280_pressure;Samples;Min_cycle;Max_cycle;Signal;HPM_P1;HPM_P2
2021/11/10 00:00:44;;;;;;;12.13;8.23;;;9.80;99.90;;;;;;4930347;28;20469;-83
2021/11/10 00:03:12;;;;;;;11.60;8.18;;;9.90;99.90;;;;;;4967696;28;20039;-83
2021/11/10 00:05:40;;;;;;;12.18;8.38;;;10.10;99.90;;;;;;4964956;28;20167;-85
2021/11/10 00:08:09;;;;;;;13.82;8.10;;;10.10;99.90;;;;;;4981236;28;20066;-82
2021/11/10 00:10:37;;;;;;;14.93;9.50;;;10.10;99.90;;;;;;4970707;28;20038;-82
2021/11/10 00:13:19;;;;;;;11.68;8.63;;;10.20;99.90;;;;;;4986784;28;20145;-83
2021/11/10 00:15:49;;;;;;;14.23;8.55;;;10.20;99.90;;;;;;4971957;28;20053;-83
2021/11/10 00:18:17;;;;;;;16.00;8.43;;;10.20;99.90;;;;;;4974084;28;20074;-86
2021/11/10 00:20:46;;;;;;;12.40;8.23;;;10.20;99.90;;;;;;4976331;28;20121;-88
2021/11/10 00:23:35;;;;;;;14.55;8.82;;;10.10;99.90;;;;;;4958432;28;20051;-86
2021/11/10 00:26:02;;;;;;;12.63;9.30;;;10.00;99.90;;;;;;4976364;28;20047;-85
2021/11/10 00:28:29;;;;;;;14.73;8.68;;;10.10;99.90;;;;;;4958609;28;20054;-87
2021/11/10 00:30:57;;;;;;;12.25;9.05;;;10.10;99.90;;;;;;4975394;28;20418;-87
2021/11/10 00:33:25;;;;;;;12.10;9.40;;;10.00;99.90;;;;;;4959482;28;20051;-83
2021/11/10 00:35:53;;;;;;;14.30;9.05;;;10.00;99.90;;;;;;4958711;28;20459;-89
2021/11/10 00:38:20;;;;;;;13.75;9.60;;;9.90;99.90;;;;;;4959186;28;20060;-86
2021/11/10 00:40:47;;;;;;;14.50;9.95;;;9.80;99.90;;;;;;4943268;28;20141;-87
2021/11/10 00:43:21;;;;;;;18.05;11.85;;;9.80;99.90;;;;;;4959174;28;20050;-87
2021/11/10 00:45:50;;;;;;;16.83;12.65;;;9.80;99.90;;;;;;4976314;28;20162;-87
2021/11/10 00:48:18;;;;;;;18.90;13.45;;;9.60;99.90;;;;;;4974834;28;20066;-82
2021/11/10 00:50:45;;;;;;;18.95;12.95;;;9.60;99.90;;;;;;4975385;28;20069;-84
2021/11/10 00:53:13;;;;;;;20.42;11.82;;;9.50;99.90;;;;;;4958296;28;20045;-84
2021/11/10 00:55:41;;;;;;;17.65;12.07;;;9.60;99.90;;;;;;4975295;28;20054;-84
2021/11/10 00:58:10;;;;;;;14.30;10.50;;;9.40;99.90;;;;;;4958370;28;20047;-84
2021/11/10 01:00:38;;;;;;;15.05;10.68;;;9.10;99.90;;;;;;4974052;28;20450;-81
2021/11/10 01:03:06;;;;;;;11.00;8.77;;;8.90;99.90;;;;;;4975139;28;20046;-82
2021/11/10 01:05:34;;;;;;;13.35;9.68;;;8.90;99.90;;;;;;4975177;28;20077;-82
2021/11/10 01:08:03;;;;;;;12.90;8.65;;;8.80;99.90;;;;;;4974671;28;20043;-82
2021/11/10 01:10:31;;;;;;;10.52;7.95;;;8.80;99.90;;;;;;4974705;28;20126;-84
2021/11/10 01:13:00;;;;;;;11.40;8.40;;;8.60;99.90;;;;;;4957691;28;20157;-86
2021/11/10 01:15:28;;;;;;;9.93;8.32;;;8.50;99.90;;;;;;4975010;28;20038;-84
2021/11/10 01:17:56;;;;;;;13.05;8.32;;;8.50;99.90;;;;;;4957533;28;20089;-85
2021/11/10 01:20:23;;;;;;;10.93;7.70;;;8.60;99.90;;;;;;4975373;28;20399;-87
2021/11/10 01:22:51;;;;;;;12.93;7.78;;;8.50;99.90;;;;;;4974792;28;20094;-84
2021/11/10 01:25:18;;;;;;;9.13;6.75;;;8.40;99.90;;;;;;4957968;28;20619;-83
2021/11/10 01:27:45;;;;;;;9.65;7.57;;;8.30;99.90;;;;;;4956871;28;20062;-83
2021/11/10 01:30:14;;;;;;;9.55;7.53;;;8.20;99.90;;;;;;4957441;28;20394;-86
2021/11/10 01:32:43;;;;;;;11.55;7.95;;;8.20;99.90;;;;;;4974653;28;20047;-83
2021/11/10 01:35:11;;;;;;;10.07;7.28;;;8.10;99.90;;;;;;4972857;28;20410;-81
2021/11/10 01:37:38;;;;;;;10.13;7.43;;;8.00;99.90;;;;;;4957062;28;20077;-82
2021/11/10 01:40:07;;;;;;;9.25;6.95;;;8.20;99.90;;;;;;4957517;28;20515;-84
2021/11/10 01:42:40;;;;;;;8.50;6.88;;;8.10;99.90;;;;;;4956996;28;20570;-85
2021/11/10 01:45:10;;;;;;;11.23;8.45;;;8.00;99.90;;;;;;4974294;28;20099;-87
2021/11/10 01:47:38;;;;;;;10.65;7.93;;;8.00;99.90;;;;;;4974887;28;20074;-89
2021/11/10 01:50:10;;;;;;;13.30;7.70;;;7.90;99.90;;;;;;4973531;28;20043;-87
2021/11/10 01:52:38;;;;;;;10.48;8.18;;;7.90;99.90;;;;;;4956633;28;20055;-82
2021/11/10 01:55:06;;;;;;;12.93;8.65;;;7.80;99.90;;;;;;4956747;28;20043;-82
2021/11/10 01:57:34;;;;;;;10.43;8.05;;;7.80;99.90;;;;;;4956594;28;20043;-83
2021/11/10 02:00:19;;;;;;;12.13;8.55;;;7.90;99.90;;;;;;4956635;28;20113;-86
2021/11/10 02:02:51;;;;;;;11.07;8.10;;;7.90;99.90;;;;;;4956141;28;20051;-84
2021/11/10 02:05:20;;;;;;;13.45;9.25;;;7.90;99.90;;;;;;4956518;28;20057;-81
2021/11/10 02:07:48;;;;;;;11.20;8.75;;;7.90;99.90;;;;;;4973550;28;20047;-82
2021/11/10 02:10:19;;;;;;;10.88;8.30;;;7.80;99.90;;;;;;4973788;28;20435;-79
2021/11/10 02:12:47;;;;;;;11.30;8.32;;;7.90;99.90;;;;;;4940090;28;20805;-84
2021/11/10 02:15:17;;;;;;;10.50;8.30;;;7.90;99.90;;;;;;4973578;28;20191;-84
2021/11/10 02:17:53;;;;;;;10.77;7.75;;;8.10;99.90;;;;;;4973077;28;20039;-80
2021/11/10 02:20:21;;;;;;;12.13;8.13;;;8.10;99.90;;;;;;4973340;28;20047;-79
2021/11/10 02:22:52;;;;;;;11.20;8.18;;;8.20;99.90;;;;;;4973022;28;20039;-82
2021/11/10 02:25:19;;;;;;;11.50;8.02;;;8.20;99.90;;;;;;4973266;28;20051;-81
2021/11/10 02:27:47;;;;;;;10.05;8.02;;;8.00;99.90;;;;;;4987805;28;20443;-84
2021/11/10 02:30:18;;;;;;;17.63;8.60;;;8.00;99.90;;;;;;4973327;28;20047;-86
2021/11/10 02:32:52;;;;;;;11.18;8.68;;;8.20;99.90;;;;;;4955427;28;20042;-85
2021/11/10 02:35:23;;;;;;;12.00;8.90;;;8.20;99.90;;;;;;4972245;28;20271;-81
2021/11/10 02:37:54;;;;;;;10.88;8.27;;;8.30;99.90;;;;;;4988151;28;20077;-85
2021/11/10 02:40:22;;;;;;;9.43;7.47;;;8.20;99.90;;;;;;4955612;28;20047;-81
2021/11/10 02:42:52;;;;;;;10.68;7.82;;;8.20;99.90;;;;;;4972807;28;20085;-82
2021/11/10 02:45:19;;;;;;;11.27;7.78;;;8.20;99.90;;;;;;4956183;28;20053;-85
2021/11/10 02:47:47;;;;;;;12.57;8.63;;;8.20;99.90;;;;;;4940087;28;20039;-83
2021/11/10 02:50:14;;;;;;;9.80;8.02;;;8.30;99.90;;;;;;4972168;28;20042;-84
2021/11/10 02:52:42;;;;;;;11.85;9.00;;;8.30;99.90;;;;;;4939775;28;20455;-83
2021/11/10 02:55:09;;;;;;;13.70;9.25;;;8.20;99.90;;;;;;4973223;28;20039;-83
2021/11/10 02:57:38;;;;;;;11.77;8.43;;;8.20;99.90;;;;;;4972640;28;20042;-84
2021/11/10 03:00:08;;;;;;;12.27;8.65;;;8.10;99.90;;;;;;4973054;28;20038;-82
2021/11/10 03:02:36;;;;;;;15.38;8.63;;;8.00;99.90;;;;;;4972936;28;20154;-83
2021/11/10 03:05:05;;;;;;;12.63;8.77;;;8.00;99.90;;;;;;4972962;28;20408;-82
2021/11/10 03:07:32;;;;;;;12.18;8.63;;;8.10;99.90;;;;;;4973137;28;20447;-82
2021/11/10 03:10:00;;;;;;;10.60;8.48;;;8.10;99.90;;;;;;4988257;28;20042;-82
2021/11/10 03:12:28;;;;;;;12.18;8.05;;;8.10;99.90;;;;;;4955524;28;20046;-84
2021/11/10 03:14:55;;;;;;;10.80;8.35;;;8.10;99.90;;;;;;4968943;28;20039;-81
2021/11/10 03:17:22;;;;;;;13.15;8.15;;;8.10;99.90;;;;;;4953899;29;20043;-82
2021/11/10 03:19:50;;;;;;;13.48;8.15;;;8.00;99.90;;;;;;4953943;29;20446;-81
2021/11/10 03:22:18;;;;;;;11.95;8.25;;;8.00;99.90;;;;;;4969359;28;20051;-81
2021/11/10 03:24:46;;;;;;;11.70;8.10;;;8.00;99.90;;;;;;4953728;29;20040;-82
2021/11/10 03:27:13;;;;;;;11.60;8.15;;;8.00;99.90;;;;;;4953645;29;20118;-81
2021/11/10 03:29:41;;;;;;;11.13;8.15;;;8.00;99.90;;;;;;4953532;28;20506;-82
2021/11/10 03:32:10;;;;;;;11.68;8.52;;;8.00;99.90;;;;;;4953588;29;20534;-83
2021/11/10 03:34:37;;;;;;;13.65;8.65;;;7.80;99.90;;;;;;4953405;29;20043;-84
2021/11/10 03:37:05;;;;;;;10.82;8.50;;;7.80;99.90;;;;;;4951906;28;20410;-82
2021/11/10 03:39:32;;;;;;;12.77;8.48;;;7.90;99.90;;;;;;4952227;29;20071;-81
2021/11/10 03:42:01;;;;;;;11.85;8.38;;;7.80;99.90;;;;;;4935876;29;20055;-83
2021/11/10 03:44:28;;;;;;;9.98;7.55;;;7.80;99.90;;;;;;4952200;29;20432;-82
2021/11/10 03:46:56;;;;;;;12.82;8.65;;;7.80;99.90;;;;;;4935950;29;20043;-84
2021/11/10 03:49:25;;;;;;;10.50;8.13;;;7.80;99.90;;;;;;4953435;29;20043;-84
2021/11/10 03:51:53;;;;;;;11.02;8.23;;;7.60;99.90;;;;;;4956431;28;20115;-85
2021/11/10 03:54:21;;;;;;;11.93;7.60;;;7.60;99.90;;;;;;4956310;28;20142;-80
2021/11/10 03:56:48;;;;;;;10.25;8.13;;;7.70;99.90;;;;;;4956768;29;20082;-81
2021/11/10 03:59:16;;;;;;;11.63;8.63;;;7.60;99.90;;;;;;4957926;29;20146;-85
2021/11/10 04:01:43;;;;;;;11.05;8.52;;;7.60;99.90;;;;;;4971557;28;20125;-81
2021/11/10 04:04:11;;;;;;;11.38;8.48;;;7.70;99.90;;;;;;4924146;29;20442;-84
2021/11/10 04:06:38;;;;;;;10.27;7.57;;;7.80;99.90;;;;;;4939712;29;20130;-83
2021/11/10 04:09:09;;;;;;;10.55;8.23;;;7.80;99.90;;;;;;4955658;29;20051;-82
2021/11/10 04:11:36;;;;;;;11.30;8.48;;;7.80;99.90;;;;;;4955256;29;20044;-82
2021/11/10 04:14:04;;;;;;;12.05;8.20;;;7.80;99.90;;;;;;4956387;29;20050;-81
2021/11/10 04:16:32;;;;;;;11.40;8.05;;;7.70;99.90;;;;;;4970870;28;20053;-83
2021/11/10 04:18:59;;;;;;;10.57;8.38;;;7.60;99.90;;;;;;4975713;28;20039;-82
2021/11/10 04:21:27;;;;;;;11.70;8.35;;;7.60;99.90;;;;;;4975468;28;20038;-83
2021/11/10 04:23:57;;;;;;;12.73;8.90;;;7.70;99.90;;;;;;4975592;28;20066;-82
2021/11/10 04:26:33;;;;;;;10.43;8.55;;;7.70;99.90;;;;;;4975556;28;20122;-81
2021/11/10 04:29:01;;;;;;;15.00;8.25;;;7.60;99.90;;;;;;4975498;28;20046;-81
2021/11/10 04:31:28;;;;;;;12.10;8.82;;;7.50;99.90;;;;;;4941986;28;20414;-80
2021/11/10 04:33:56;;;;;;;10.27;8.52;;;7.40;99.90;;;;;;4942685;28;20545;-78
2021/11/10 04:36:29;;;;;;;11.88;8.52;;;7.50;99.90;;;;;;4974606;28;20050;-80
2021/11/10 04:38:56;;;;;;;11.98;9.20;;;7.50;99.90;;;;;;4975399;28;20042;-80
2021/11/10 04:41:25;;;;;;;15.32;8.77;;;7.40;99.90;;;;;;4974230;28;20121;-80
2021/11/10 04:43:53;;;;;;;11.88;8.98;;;7.40;99.90;;;;;;4957935;28;20039;-81
2021/11/10 04:46:31;;;;;;;12.95;9.00;;;7.50;99.90;;;;;;4974858;28;20053;-80
2021/11/10 04:48:59;;;;;;;11.23;9.13;;;7.30;99.90;;;;;;4975332;28;20043;-82
2021/11/10 04:51:28;;;;;;;15.10;9.30;;;7.30;99.90;;;;;;4958504;28;20051;-83
2021/11/10 04:53:57;;;;;;;11.68;8.80;;;7.30;99.90;;;;;;4976570;28;20031;-83
2021/11/10 04:56:26;;;;;;;12.00;8.95;;;7.40;99.90;;;;;;4975710;28;20046;-82
2021/11/10 04:58:54;;;;;;;12.45;8.88;;;7.30;99.90;;;;;;4975295;28;20138;-86
2021/11/10 05:01:25;;;;;;;10.60;8.57;;;7.30;99.90;;;;;;4959259;28;20445;-86
2021/11/10 05:03:53;;;;;;;13.15;9.25;;;7.30;99.90;;;;;;4975465;28;20042;-83
2021/11/10 05:06:21;;;;;;;13.85;9.10;;;7.20;99.90;;;;;;4978627;28;20086;-89
2021/11/10 05:08:49;;;;;;;15.32;9.57;;;7.30;99.90;;;;;;4977932;28;20137;-83
2021/11/10 05:11:19;;;;;;;12.52;9.77;;;7.00;99.90;;;;;;4977717;28;20106;-90
2021/11/10 05:13:47;;;;;;;12.63;8.73;;;7.10;99.90;;;;;;4976093;28;20057;-86
2021/11/10 05:16:14;;;;;;;16.58;9.15;;;7.20;99.90;;;;;;4955804;28;20510;-90
2021/11/10 05:18:42;;;;;;;12.40;9.60;;;7.00;99.90;;;;;;4955409;28;20414;-84
2021/11/10 05:21:09;;;;;;;12.85;9.02;;;6.70;99.90;;;;;;4956629;29;20054;-90
2021/11/10 05:23:39;;;;;;;11.57;8.57;;;6.80;99.90;;;;;;4957707;29;20551;-88
2021/11/10 05:26:06;;;;;;;14.13;9.70;;;6.80;99.90;;;;;;4938960;29;20055;-79
2021/11/10 05:28:34;;;;;;;12.45;9.27;;;7.00;99.90;;;;;;4938289;29;20371;-84
2021/11/10 05:31:01;;;;;;;14.60;9.05;;;7.10;99.90;;;;;;4938907;29;20057;-89
2021/11/10 05:33:28;;;;;;;13.43;8.95;;;7.00;99.90;;;;;;4941384;29;20105;-86
2021/11/10 05:35:56;;;;;;;20.52;11.18;;;7.10;99.90;;;;;;4955414;29;20473;-84
2021/11/10 05:38:23;;;;;;;16.48;10.73;;;7.20;99.90;;;;;;4938139;29;20058;-81
2021/11/10 05:40:50;;;;;;;17.77;11.43;;;7.20;99.90;;;;;;4938533;29;20485;-85
2021/11/10 05:43:21;;;;;;;18.25;10.68;;;7.20;99.90;;;;;;4954203;29;20775;-82
2021/11/10 05:45:48;;;;;;;15.82;11.02;;;7.20;99.90;;;;;;4938385;29;20074;-80
2021/11/10 05:48:16;;;;;;;12.98;8.95;;;7.20;99.90;;;;;;4954564;29;20031;-80
2021/11/10 05:50:44;;;;;;;30.35;16.70;;;7.20;99.90;;;;;;4937608;29;20435;-80
2021/11/10 05:53:12;;;;;;;18.95;12.88;;;7.30;99.90;;;;;;4954536;29;20051;-81
2021/11/10 05:55:41;;;;;;;31.63;18.00;;;7.30;99.90;;;;;;4961173;28;20050;-77
2021/11/10 05:58:09;;;;;;;44.08;22.73;;;7.40;99.90;;;;;;4956499;28;20042;-77
2021/11/10 06:00:37;;;;;;;26.13;17.13;;;7.70;99.90;;;;;;4970346;28;20049;-76
2021/11/10 06:03:05;;;;;;;27.20;17.35;;;7.30;99.90;;;;;;4963588;28;20042;-78
2021/11/10 06:05:32;;;;;;;33.85;22.02;;;7.50;99.90;;;;;;4965026;28;20122;-78
2021/11/10 06:08:00;;;;;;;50.28;28.02;;;7.80;99.90;;;;;;4973751;28;20062;-84
2021/11/10 06:10:27;;;;;;;24.80;15.00;;;7.90;99.90;;;;;;4973100;28;20043;-84
2021/11/10 06:12:54;;;;;;;17.92;11.48;;;7.40;99.90;;;;;;4947352;28;20062;-82
2021/11/10 06:15:27;;;;;;;18.45;11.25;;;7.20;99.90;;;;;;4963937;28;20046;-85
2021/11/10 06:17:54;;;;;;;14.77;11.73;;;7.40;99.90;;;;;;4946268;28;20039;-82
2021/11/10 06:20:24;;;;;;;15.60;11.23;;;7.40;99.90;;;;;;4962227;28;20039;-80
2021/11/10 06:22:52;;;;;;;15.43;11.07;;;7.50;99.90;;;;;;4978667;28;20125;-81
2021/11/10 06:25:19;;;;;;;16.55;11.30;;;7.40;99.90;;;;;;4946764;28;20139;-80
2021/11/10 06:27:47;;;;;;;17.52;11.18;;;7.40;99.90;;;;;;4964514;28;20061;-84
2021/11/10 06:30:15;;;;;;;16.27;10.50;;;7.50;99.90;;;;;;4961579;28;20035;-86
2021/11/10 06:32:45;;;;;;;16.80;11.40;;;7.50;99.90;;;;;;4955450;29;20082;-78
2021/11/10 06:35:16;;;;;;;15.32;10.88;;;7.60;99.90;;;;;;4955731;29;20043;-80
2021/11/10 06:37:45;;;;;;;13.57;11.18;;;7.60;99.90;;;;;;4955163;29;20130;-87
2021/11/10 06:40:14;;;;;;;15.07;10.77;;;7.70;99.90;;;;;;4952076;29;20430;-86
2021/11/10 06:42:41;;;;;;;22.80;15.50;;;7.60;99.90;;;;;;4954768;29;20048;-87
2021/11/10 06:45:09;;;;;;;105.07;54.25;;;7.60;99.90;;;;;;4938485;29;20062;-83
2021/11/10 06:47:36;;;;;;;25.05;17.73;;;8.30;99.90;;;;;;4957738;29;20058;-83
2021/11/10 06:50:05;;;;;;;22.15;14.40;;;7.80;99.90;;;;;;4957432;29;20039;-81
2021/11/10 06:52:34;;;;;;;20.05;13.07;;;8.00;99.90;;;;;;4954597;29;20048;-80
2021/11/10 06:55:02;;;;;;;17.25;11.77;;;8.20;99.90;;;;;;4936638;29;20094;-87
2021/11/10 06:57:30;;;;;;;15.13;11.43;;;8.00;99.90;;;;;;4953330;29;20043;-75
2021/11/10 06:59:58;;;;;;;18.58;12.13;;;8.10;99.90;;;;;;4952844;29;20633;-87
2021/11/10 07:02:26;;;;;;;20.42;12.20;;;8.10;99.90;;;;;;4953837;29;20057;-82
2021/11/10 07:04:53;;;;;;;15.98;11.48;;;8.40;99.90;;;;;;4936168;29;20046;-80
2021/11/10 07:07:21;;;;;;;16.38;11.13;;;8.40;99.90;;;;;;4935599;29;20448;-83
2021/11/10 07:09:48;;;;;;;20.58;11.95;;;8.70;99.90;;;;;;4952580;29;20043;-82
2021/11/10 07:12:15;;;;;;;19.20;11.15;;;8.70;99.90;;;;;;4936056;29;20054;-90
2021/11/10 07:14:42;;;;;;;17.42;12.05;;;8.40;99.90;;;;;;4937669;29;20054;-89
2021/11/10 07:17:10;;;;;;;17.80;12.18;;;8.50;99.90;;;;;;4967570;28;20386;-81
2021/11/10 07:19:37;;;;;;;19.33;12.10;;;8.90;99.90;;;;;;4988325;28;20047;-81
2021/11/10 07:22:05;;;;;;;18.38;11.93;;;9.10;99.90;;;;;;4972346;28;20454;-83
2021/11/10 07:24:33;;;;;;;19.48;12.65;;;9.40;99.90;;;;;;4973410;28;20042;-83
2021/11/10 07:27:00;;;;;;;16.20;12.30;;;9.50;99.90;;;;;;4978335;28;20125;-83
2021/11/10 07:29:30;;;;;;;18.77;13.93;;;9.50;99.90;;;;;;4979671;28;20051;-82
2021/11/10 07:31:57;;;;;;;20.02;12.52;;;9.80;99.90;;;;;;4995606;28;20074;-91
2021/11/10 07:34:25;;;;;;;23.48;15.07;;;9.90;99.90;;;;;;4963605;28;20054;-88
2021/11/10 07:37:10;;;;;;;23.65;14.55;;;9.80;99.90;;;;;;4997288;28;20145;-86
2021/11/10 07:39:43;;;;;;;23.48;14.43;;;10.00;99.90;;;;;;4982044;28;20109;-88
2021/11/10 07:42:11;;;;;;;20.80;14.13;;;10.10;99.90;;;;;;4953508;28;20055;-81
2021/11/10 07:44:40;;;;;;;22.13;14.38;;;10.30;99.90;;;;;;4961946;28;20049;-85
2021/11/10 07:47:19;;;;;;;21.27;12.07;;;10.20;99.90;;;;;;4960133;29;20048;-84
2021/11/10 07:49:46;;;;;;;19.27;12.38;;;10.10;99.90;;;;;;4943241;29;20395;-85
2021/11/10 07:52:13;;;;;;;18.20;13.40;;;10.00;99.90;;;;;;4959924;29;20378;-88
2021/11/10 07:54:41;;;;;;;20.40;13.15;;;10.00;99.90;;;;;;4960084;29;20078;-84
2021/11/10 07:57:09;;;;;;;20.10;13.10;;;10.20;99.90;;;;;;4958244;29;20031;-83
2021/11/10 07:59:39;;;;;;;15.70;11.27;;;10.30;99.90;;;;;;4959997;28;20046;-85
2021/11/10 08:02:09;;;;;;;20.95;11.73;;;10.30;99.90;;;;;;4959612;28;20049;-89
2021/11/10 08:04:37;;;;;;;16.70;10.88;;;10.30;99.90;;;;;;4943112;29;20058;-88
2021/11/10 08:07:13;;;;;;;14.48;10.75;;;10.40;99.90;;;;;;4943132;28;20043;-86
2021/11/10 08:09:41;;;;;;;14.90;10.05;;;10.20;99.90;;;;;;4962349;28;20062;-90
2021/11/10 08:12:08;;;;;;;14.15;10.40;;;10.30;99.90;;;;;;4959547;28;20114;-90
2021/11/10 08:14:36;;;;;;;14.95;10.32;;;10.70;99.90;;;;;;4960694;28;20062;-91
2021/11/10 08:17:04;;;;;;;15.38;10.10;;;11.10;99.90;;;;;;4981523;28;20424;-86
2021/11/10 08:19:31;;;;;;;14.07;9.70;;;10.80;99.90;;;;;;4981977;28;20077;-94
2021/11/10 08:22:05;;;;;;;12.65;9.10;;;10.70;99.90;;;;;;4980537;28;20042;-87
2021/11/10 08:24:33;;;;;;;15.38;9.85;;;11.00;99.90;;;;;;4964897;28;20054;-92
2021/11/10 08:27:15;;;;;;;13.68;9.27;;;11.50;99.90;;;;;;4964046;28;20087;-90
2021/11/10 08:29:43;;;;;;;13.02;8.73;;;11.60;99.90;;;;;;4981346;28;20074;-86
2021/11/10 08:32:12;;;;;;;13.60;9.60;;;11.80;99.90;;;;;;4997912;28;20062;-92
2021/11/10 08:34:39;;;;;;;17.65;9.70;;;11.90;99.90;;;;;;4981473;28;20078;-93
2021/11/10 08:37:07;;;;;;;13.98;9.85;;;11.90;99.90;;;;;;4996596;28;20058;-89
2021/11/10 08:39:35;;;;;;;13.25;9.02;;;12.00;99.90;;;;;;4966877;28;20062;-87
2021/11/10 08:42:08;;;;;;;15.55;10.25;;;11.80;99.90;;;;;;4956210;29;20047;-87
2021/11/10 08:44:57;;;;;;;14.88;9.32;;;12.20;99.90;;;;;;4957313;29;20546;-87
2021/11/10 08:47:26;;;;;;;14.63;9.03;;;12.50;99.90;;;;;;4924437;29;20498;-86
2021/11/10 08:49:53;;;;;;;15.10;9.52;;;12.50;99.90;;;;;;4924623;29;20051;-90
2021/11/10 08:52:22;;;;;;;13.13;8.68;;;12.20;99.90;;;;;;4939706;29;20051;-89
2021/11/10 08:54:51;;;;;;;13.57;8.95;;;12.80;99.90;;;;;;4972110;28;20058;-84
2021/11/10 08:57:19;;;;;;;14.85;9.75;;;13.20;99.90;;;;;;4938509;29;20047;-83
2021/11/10 08:59:46;;;;;;;14.50;9.55;;;12.80;99.90;;;;;;4955446;29;20053;-84
2021/11/10 09:02:17;;;;;;;11.75;8.63;;;12.50;99.90;;;;;;4955288;29;20047;-86
2021/11/10 09:04:45;;;;;;;14.40;9.50;;;12.70;99.90;;;;;;4958189;28;20047;-84
2021/11/10 09:07:13;;;;;;;12.15;8.50;;;13.00;99.90;;;;;;4942004;29;20055;-84
2021/11/10 09:09:43;;;;;;;10.43;7.50;;;13.10;99.90;;;;;;4942265;29;20086;-83
2021/11/10 09:12:13;;;;;;;13.07;7.78;;;12.80;99.90;;;;;;4938264;28;20059;-85
2021/11/10 09:14:41;;;;;;;11.32;7.43;;;13.10;99.90;;;;;;4950279;28;20127;-81
2021/11/10 09:17:20;;;;;;;11.40;7.78;;;13.30;99.90;;;;;;4956197;28;20051;-86
2021/11/10 09:19:48;;;;;;;9.82;6.80;;;13.60;99.90;;;;;;4968825;28;20062;-83
2021/11/10 09:22:16;;;;;;;10.50;6.70;;;13.80;99.90;;;;;;4958342;28;20039;-85
2021/11/10 09:24:43;;;;;;;10.15;7.30;;;13.90;99.90;;;;;;4956727;28;20082;-88
2021/11/10 09:27:11;;;;;;;10.52;7.35;;;14.50;99.90;;;;;;4969196;28;20093;-88
2021/11/10 09:29:38;;;;;;;10.75;7.55;;;14.50;99.90;;;;;;4974999;28;20039;-83
2021/11/10 09:32:07;;;;;;;12.18;7.15;;;14.40;99.80;;;;;;4962077;28;20048;-89
2021/11/10 09:34:34;;;;;;;9.02;6.72;;;14.30;99.90;;;;;;4923931;29;20137;-91
2021/11/10 09:37:02;;;;;;;11.45;7.13;;;14.60;99.40;;;;;;4939211;29;20043;-90
2021/11/10 09:39:32;;;;;;;10.35;6.95;;;14.40;99.20;;;;;;4956004;29;20128;-90
2021/11/10 09:42:14;;;;;;;10.52;7.47;;;14.00;99.60;;;;;;4923355;28;20053;-91
2021/11/10 09:44:58;;;;;;;10.57;7.35;;;14.30;99.60;;;;;;4952810;28;20055;-87
2021/11/10 09:47:25;;;;;;;11.35;7.07;;;14.40;99.10;;;;;;4976831;28;20114;-83
2021/11/10 09:49:52;;;;;;;15.38;7.93;;;14.40;99.30;;;;;;4959090;28;20410;-90
2021/11/10 09:52:20;;;;;;;18.75;7.05;;;13.80;99.90;;;;;;4975379;28;20448;-87
2021/11/10 09:54:47;;;;;;;10.32;7.30;;;14.00;99.90;;;;;;4974463;28;20051;-86
2021/11/10 09:57:17;;;;;;;10.38;7.07;;;14.10;99.70;;;;;;4968126;28;20118;-81
2021/11/10 09:59:44;;;;;;;12.40;7.40;;;14.60;99.40;;;;;;4971541;28;20059;-89
2021/11/10 10:02:33;;;;;;;11.88;6.72;;;14.20;99.10;;;;;;4949256;28;20055;-89
2021/11/10 10:05:01;;;;;;;13.68;7.35;;;14.20;99.90;;;;;;4972185;28;20055;-86
2021/11/10 10:07:29;;;;;;;12.20;8.50;;;14.40;99.90;;;;;;4970443;28;20678;-90
2021/11/10 10:09:57;;;;;;;11.65;7.60;;;14.70;99.40;;;;;;4961424;28;20093;-89
2021/11/10 10:12:24;;;;;;;11.55;7.50;;;15.00;98.60;;;;;;4946938;28;20071;-88
2021/11/10 10:15:04;;;;;;;12.07;7.35;;;15.20;98.30;;;;;;4966443;28;20054;-92
2021/11/10 10:17:40;;;;;;;10.73;7.15;;;14.90;98.10;;;;;;4949054;28;20115;-87
2021/11/10 10:20:28;;;;;;;12.90;7.00;;;14.20;99.70;;;;;;4986349;28;20051;-81
2021/11/10 10:23:04;;;;;;;11.38;6.78;;;14.70;98.30;;;;;;4956232;28;20054;-88
2021/11/10 10:25:43;;;;;;;;;;;14.30;98.20;;;;;;4953166;29;20078;-89
2021/11/10 10:28:25;;;;;;;10.18;6.32;;;14.50;98.10;;;;;;4958600;28;19926;-89
2021/11/10 10:30:57;;;;;;;9.50;6.65;;;14.90;97.60;;;;;;4960682;28;20039;-87
2021/11/10 10:33:28;;;;;;;11.80;7.32;;;15.20;97.00;;;;;;4950036;28;20054;-87
2021/11/10 10:36:01;;;;;;;;;;;15.70;96.70;;;;;;4972696;28;20126;-89
2021/11/10 10:38:43;;;;;;;9.63;5.90;;;15.50;96.30;;;;;;4951204;28;19922;-85
2021/11/10 10:41:14;;;;;;;8.82;5.80;;;15.90;95.70;;;;;;4975083;28;20046;-86
2021/11/10 10:43:44;;;;;;;9.43;6.07;;;15.60;95.70;;;;;;4957137;28;20090;-81
2021/11/10 10:46:11;;;;;;;9.20;6.15;;;15.30;95.60;;;;;;4955735;28;20043;-83
2021/11/10 10:48:39;;;;;;;9.32;6.03;;;15.10;96.20;;;;;;4954794;29;20047;-89
2021/11/10 10:51:22;;;;;;;8.85;5.78;;;14.90;96.90;;;;;;4948474;28;20047;-81
2021/11/10 10:53:55;;;;;;;8.40;5.72;;;14.80;97.20;;;;;;4970400;28;20486;-88
2021/11/10 10:56:28;;;;;;;8.80;5.15;;;14.60;97.70;;;;;;4954923;29;20051;-86
2021/11/10 10:59:12;;;;;;;9.18;5.82;;;14.40;97.60;;;;;;4954432;29;20046;-89
2021/11/10 11:01:54;;;;;;;9.10;5.57;;;14.10;98.40;;;;;;4969299;28;20043;-89
2021/11/10 11:04:29;;;;;;;9.55;6.10;;;14.30;98.60;;;;;;4939105;29;20039;-91
2021/11/10 11:07:01;;;;;;;10.20;5.82;;;14.40;98.50;;;;;;4956514;29;20050;-88
2021/11/10 11:09:35;;;;;;;8.35;5.57;;;14.70;98.30;;;;;;4956216;29;20442;-90
2021/11/10 11:12:13;;;;;;;8.15;5.88;;;14.60;98.10;;;;;;4940181;29;20054;-89
2021/11/10 11:14:46;;;;;;;8.38;5.65;;;14.40;98.50;;;;;;4935049;29;20504;-91
2021/11/10 11:17:28;;;;;;;7.80;5.60;;;14.80;98.20;;;;;;4917786;29;20054;-88
2021/11/10 11:20:05;;;;;;;7.75;5.28;;;14.70;98.20;;;;;;4934892;29;20044;-88
2021/11/10 11:22:45;;;;;;;6.93;5.18;;;14.30;98.90;;;;;;4918317;29;20056;-89
2021/11/10 11:25:20;;;;;;;7.43;4.97;;;14.10;99.20;;;;;;4950767;29;20044;-88
2021/11/10 11:28:09;;;;;;;8.73;6.07;;;14.20;99.60;;;;;;4950918;29;20079;-89
2021/11/10 11:30:41;;;;;;;9.68;5.50;;;14.40;99.20;;;;;;4934386;29;20099;-86
2021/11/10 11:33:15;;;;;;;11.27;5.68;;;14.20;99.10;;;;;;4950215;29;20050;-90
2021/11/10 11:35:46;;;;;;;8.05;5.35;;;14.30;99.60;;;;;;4936657;29;20099;-88
2021/11/10 11:38:21;;;;;;;7.93;5.22;;;14.20;99.70;;;;;;4935122;29;20526;-83
2021/11/10 11:40:55;;;;;;;8.60;5.72;;;14.60;99.70;;;;;;4950771;29;20130;-88
2021/11/10 11:43:26;;;;;;;10.68;5.47;;;14.70;99.50;;;;;;4952470;29;20058;-90
2021/11/10 11:46:06;;;;;;;6.75;4.88;;;14.70;99.70;;;;;;4939893;29;20108;-86
2021/11/10 11:48:36;;;;;;;8.80;5.75;;;14.70;99.30;;;;;;4952218;29;20844;-87
2021/11/10 11:51:05;;;;;;;8.57;5.25;;;14.70;99.70;;;;;;4949864;29;20079;-84
2021/11/10 11:53:37;;;;;;;6.75;4.50;;;14.50;99.60;;;;;;4916400;29;20406;-91
2021/11/10 11:56:15;;;;;;;8.90;4.38;;;14.80;99.40;;;;;;4932814;29;20039;-85
2021/11/10 11:58:47;;;;;;;7.10;5.13;;;14.70;99.80;;;;;;4931447;29;20223;-86
2021/11/10 12:01:20;;;;;;;7.75;4.90;;;14.90;99.60;;;;;;4931815;29;20074;-87
2021/11/10 12:03:54;;;;;;;6.68;4.40;;;14.70;99.90;;;;;;4933638;29;20387;-90
2021/11/10 12:06:24;;;;;;;7.13;4.60;;;14.70;99.90;;;;;;4947168;29;20345;-83
2021/11/10 12:08:57;;;;;;;8.32;4.53;;;14.60;99.90;;;;;;4933087;29;20044;-90
2021/11/10 12:11:30;;;;;;;6.97;4.68;;;14.60;99.90;;;;;;4933687;29;20092;-87
2021/11/10 12:14:22;;;;;;;7.78;4.90;;;14.30;99.90;;;;;;4964851;28;20047;-87
2021/11/10 12:17:11;;;;;;;6.88;4.82;;;14.60;99.90;;;;;;4952898;29;20051;-89
2021/11/10 12:20:02;;;;;;;10.35;4.95;;;14.60;99.90;;;;;;4936569;29;20057;-88
2021/11/10 12:22:55;;;;;;;7.55;5.00;;;14.60;99.90;;;;;;4936437;29;20496;-88
2021/11/10 12:25:24;;;;;;;10.40;4.60;;;14.60;99.90;;;;;;4921094;29;20052;-85
2021/11/10 12:27:51;;;;;;;6.40;4.60;;;14.90;99.90;;;;;;4921460;29;20471;-87
2021/11/10 12:30:24;;;;;;;8.35;5.22;;;16.20;99.90;;;;;;4920900;29;20043;-89
2021/11/10 12:33:00;;;;;;;6.53;4.50;;;18.70;95.70;;;;;;4952507;29;20224;-88
2021/11/10 12:35:33;;;;;;;7.57;4.43;;;19.40;92.60;;;;;;4937694;29;20040;-87
2021/11/10 12:38:21;;;;;;;8.48;4.18;;;19.80;90.50;;;;;;4937878;29;20078;-89
2021/11/10 12:41:00;;;;;;;8.10;4.72;;;20.90;85.80;;;;;;4951544;29;20131;-87
2021/11/10 12:43:38;;;;;;;7.40;4.88;;;20.80;80.50;;;;;;4919947;29;20047;-87
2021/11/10 12:46:13;;;;;;;6.78;4.43;;;21.00;79.00;;;;;;4935680;29;20456;-84
2021/11/10 12:48:45;;;;;;;6.55;4.00;;;21.80;76.30;;;;;;4935799;29;20444;-85
2021/11/10 12:51:44;;;;;;;5.85;3.67;;;22.00;75.00;;;;;;4937402;29;20067;-84
2021/11/10 12:54:24;;;;;;;6.07;4.25;;;21.80;74.80;;;;;;4932383;29;20398;-84
2021/11/10 12:56:56;;;;;;;8.23;4.03;;;20.90;75.10;;;;;;4937063;29;20262;-85
2021/11/10 12:59:39;;;;;;;6.90;4.40;;;18.80;82.10;;;;;;4936213;29;20050;-87